createdAt,value
2022-09-17T00:01:08.651Z,4.95
2022-09-17T00:03:36.404Z,5.00
2022-09-17T00:06:06.659Z,4.70
2022-09-17T00:08:34.796Z,4.45
2022-09-17T00:11:16.387Z,4.18
2022-09-17T00:13:44.517Z,4.28
2022-09-17T00:16:12.647Z,4.97
2022-09-17T00:18:41.997Z,4.30
2022-09-17T00:21:17.552Z,4.40
2022-09-17T00:23:44.846Z,5.05
2022-09-17T00:26:11.994Z,4.78
2022-09-17T00:28:39.002Z,4.47
2022-09-17T00:31:10.303Z,4.50
2022-09-17T00:33:38.598Z,4.47
2022-09-17T00:36:05.884Z,4.70
2022-09-17T00:38:33.571Z,5.05
2022-09-17T00:41:01.288Z,5.05
2022-09-17T00:43:39.747Z,5.15
2022-09-17T00:46:29.630Z,4.38
2022-09-17T00:48:59.512Z,4.82
2022-09-17T00:51:33.690Z,4.60
2022-09-17T00:54:03.082Z,3.97
2022-09-17T00:56:33.440Z,4.47
2022-09-17T00:59:01.885Z,4.88
2022-09-17T01:01:29.280Z,4.53
2022-09-17T01:03:56.448Z,4.45
2022-09-17T01:06:29.075Z,5.18
2022-09-17T01:09:26.075Z,4.05
2022-09-17T01:12:10.979Z,5.28
2022-09-17T01:15:15.738Z,4.10
2022-09-17T01:17:42.548Z,4.60
2022-09-17T01:20:37.207Z,4.82
2022-09-17T01:23:31.622Z,5.20
2022-09-17T01:26:19.431Z,4.53
2022-09-17T01:29:21.955Z,4.63
2022-09-17T01:31:54.671Z,4.85
2022-09-17T01:34:42.320Z,4.00
2022-09-17T01:37:22.761Z,4.00
2022-09-17T01:40:04.967Z,3.67
2022-09-17T01:42:37.921Z,5.00
2022-09-17T01:45:10.639Z,4.10
2022-09-17T01:47:42.657Z,5.00
2022-09-17T01:50:23.700Z,5.72
2022-09-17T01:52:54.566Z,4.75
2022-09-17T01:55:24.678Z,4.65
2022-09-17T01:57:58.237Z,4.60
2022-09-17T02:00:25.263Z,4.22
2022-09-17T02:03:15.301Z,4.80
2022-09-17T02:06:04.327Z,4.82
2022-09-17T02:08:48.087Z,4.85
2022-09-17T02:11:17.364Z,4.95
2022-09-17T02:14:00.127Z,4.25
2022-09-17T02:16:33.198Z,4.68
2022-09-17T02:19:08.677Z,5.18
2022-09-17T02:21:47.086Z,4.40
2022-09-17T02:24:26.214Z,5.10
2022-09-17T02:27:19.266Z,5.22
2022-09-17T02:29:46.280Z,5.50
2022-09-17T02:32:13.773Z,4.43
2022-09-17T02:34:41.331Z,3.42
2022-09-17T02:37:08.723Z,4.18
2022-09-17T02:39:35.976Z,4.38
2022-09-17T02:42:49.210Z,5.55
2022-09-17T02:45:48.475Z,5.00
2022-09-17T02:48:50.896Z,5.57
2022-09-17T02:51:52.736Z,5.07
2022-09-17T02:54:41.036Z,4.82
2022-09-17T02:57:26.138Z,4.43
2022-09-17T02:59:59.053Z,4.80
2022-09-17T03:02:32.158Z,5.28
2022-09-17T03:05:01.166Z,4.13
2022-09-17T03:09:56.134Z,4.00
2022-09-17T03:12:24.668Z,4.20
2022-09-17T03:14:51.603Z,4.38
2022-09-17T03:17:18.439Z,4.68
2022-09-17T03:19:45.291Z,3.83
2022-09-17T03:22:12.701Z,4.45
2022-09-17T03:24:39.769Z,4.32
2022-09-17T03:27:06.652Z,4.75
2022-09-17T03:29:33.636Z,3.80
2022-09-17T03:32:01.195Z,3.85
2022-09-17T03:34:28.093Z,4.63
2022-09-17T03:36:55.027Z,5.97
2022-09-17T03:39:21.846Z,4.43
2022-09-17T03:41:48.712Z,7.70
2022-09-17T03:44:15.739Z,4.38
2022-09-17T03:46:42.617Z,4.43
2022-09-17T03:49:09.663Z,4.68
2022-09-17T03:51:36.601Z,3.90
2022-09-17T03:54:03.777Z,5.18
2022-09-17T03:56:30.684Z,5.28
2022-09-17T03:58:59.550Z,4.72
2022-09-17T04:01:27.290Z,4.20
2022-09-17T04:03:54.618Z,5.30
2022-09-17T04:06:21.571Z,5.50
2022-09-17T04:08:48.418Z,5.90
2022-09-17T04:11:15.356Z,5.20
2022-09-17T04:13:42.299Z,4.53
2022-09-17T04:16:09.187Z,5.10
2022-09-17T04:18:36.104Z,4.00
2022-09-17T04:21:03.835Z,4.82
2022-09-17T04:23:30.629Z,5.53
2022-09-17T04:25:57.562Z,6.40
2022-09-17T04:28:24.590Z,4.70
2022-09-17T04:30:51.470Z,6.03
2022-09-17T04:33:18.366Z,4.78
2022-09-17T04:35:45.888Z,6.97
2022-09-17T04:38:18.465Z,5.28
2022-09-17T04:40:46.665Z,5.60
2022-09-17T04:43:14.081Z,5.03
2022-09-17T04:45:41.168Z,4.38
2022-09-17T04:48:08.051Z,4.20
2022-09-17T04:50:34.927Z,3.47
2022-09-17T04:53:03.450Z,4.28
2022-09-17T04:55:31.416Z,5.15
2022-09-17T04:57:58.463Z,4.00
2022-09-17T05:00:25.718Z,4.43
2022-09-17T05:02:54.860Z,3.67
2022-09-17T05:05:22.828Z,3.50
2022-09-17T05:07:49.830Z,2.90
2022-09-17T05:10:19.289Z,1.88
2022-09-17T05:12:53.666Z,2.38
2022-09-17T05:15:21.402Z,1.90
2022-09-17T05:17:48.563Z,1.38
2022-09-17T05:20:16.437Z,1.58
2022-09-17T05:22:51.621Z,1.52
2022-09-17T05:25:24.243Z,1.30
2022-09-17T05:27:52.769Z,1.20
2022-09-17T05:30:20.424Z,1.58
2022-09-17T05:32:47.415Z,2.00
2022-09-17T05:35:15.110Z,2.92
2022-09-17T05:37:42.012Z,2.33
2022-09-17T05:40:09.661Z,1.90
2022-09-17T05:42:36.683Z,22.55
2022-09-17T05:45:03.910Z,2.72
2022-09-17T05:47:31.107Z,1.45
2022-09-17T05:49:58.003Z,5.85
2022-09-17T05:52:28.383Z,1.88
2022-09-17T05:54:56.258Z,4.45
2022-09-17T05:57:23.710Z,2.63
2022-09-17T05:59:50.657Z,2.30
2022-09-17T06:02:17.574Z,2.20
2022-09-17T06:04:44.499Z,1.85
2022-09-17T06:07:11.386Z,1.77
2022-09-17T06:09:38.742Z,1.25
2022-09-17T06:12:06.233Z,3.58
2022-09-17T06:14:33.245Z,1.52
2022-09-17T06:17:00.622Z,1.95
2022-09-17T06:19:28.014Z,1.63
2022-09-17T06:21:55.517Z,1.90
2022-09-17T06:24:22.461Z,1.58
2022-09-17T06:26:49.287Z,2.80
2022-09-17T06:29:16.247Z,1.45
2022-09-17T06:31:46.323Z,1.65
2022-09-17T06:34:13.242Z,1.98
2022-09-17T06:36:40.187Z,1.13
2022-09-17T06:39:07.256Z,1.58
2022-09-17T06:41:34.397Z,1.92
2022-09-17T06:44:04.757Z,1.55
2022-09-17T06:46:31.671Z,1.00
2022-09-17T06:48:59.140Z,1.67
2022-09-17T06:51:26.167Z,1.70
2022-09-17T06:53:53.169Z,0.70
2022-09-17T06:56:20.214Z,0.77
2022-09-17T06:58:47.135Z,1.48
2022-09-17T07:01:14.358Z,2.45
2022-09-17T07:03:43.595Z,2.25
2022-09-17T07:06:11.173Z,1.60
2022-09-17T07:08:39.665Z,1.52
2022-09-17T07:11:06.891Z,2.25
2022-09-17T07:13:34.671Z,2.25
2022-09-17T07:16:03.172Z,2.08
2022-09-17T07:18:30.530Z,2.38
2022-09-17T07:20:59.810Z,2.90
2022-09-17T07:23:29.024Z,2.42
2022-09-17T07:25:57.787Z,2.60
2022-09-17T07:28:26.183Z,2.88
2022-09-17T07:30:53.781Z,2.17
2022-09-17T07:33:25.646Z,2.47
2022-09-17T07:36:00.186Z,3.13
2022-09-17T07:38:28.490Z,3.15
2022-09-17T07:41:07.809Z,3.22
2022-09-17T07:43:36.098Z,3.42
2022-09-17T07:46:05.341Z,2.83
2022-09-17T07:48:32.710Z,2.75
2022-09-17T07:50:59.635Z,2.72
2022-09-17T07:53:27.263Z,2.40
2022-09-17T07:56:01.644Z,2.08
2022-09-17T07:58:34.198Z,4.13
2022-09-17T08:01:09.969Z,1.27
2022-09-17T08:03:38.635Z,1.80
2022-09-17T08:06:06.716Z,1.75
2022-09-17T08:08:36.046Z,1.10
2022-09-17T08:11:23.715Z,0.85
2022-09-17T08:14:00.063Z,1.55
2022-09-17T08:16:27.163Z,0.65
2022-09-17T08:18:56.677Z,1.00
2022-09-17T08:21:24.269Z,1.10
2022-09-17T08:23:51.230Z,0.93
2022-09-17T08:26:20.868Z,1.50
2022-09-17T08:28:49.993Z,0.68
2022-09-17T08:31:20.672Z,1.02
2022-09-17T08:33:48.233Z,1.13
2022-09-17T08:36:17.645Z,1.10
2022-09-17T08:38:45.112Z,0.95
2022-09-17T08:41:15.232Z,1.13
2022-09-17T08:44:00.252Z,1.08
2022-09-17T08:46:28.982Z,0.63
2022-09-17T08:48:59.013Z,0.88
2022-09-17T08:52:08.227Z,0.60
2022-09-17T08:54:59.347Z,0.82
2022-09-17T08:57:36.653Z,0.75
2022-09-17T09:00:15.102Z,0.80
2022-09-17T09:02:50.878Z,0.80
2022-09-17T09:05:25.912Z,1.10
2022-09-17T09:07:58.221Z,2.45
2022-09-17T09:10:28.202Z,1.75
2022-09-17T09:12:57.655Z,0.70
2022-09-17T09:15:31.806Z,0.98
2022-09-17T09:18:05.472Z,0.88
2022-09-17T09:20:57.185Z,1.08
2022-09-17T09:23:30.626Z,1.45
2022-09-17T09:26:17.788Z,1.35
2022-09-17T09:28:50.428Z,1.77
2022-09-17T09:31:29.679Z,2.85
2022-09-17T09:33:58.220Z,2.60
2022-09-17T09:36:30.387Z,1.60
2022-09-17T09:39:22.006Z,1.27
2022-09-17T09:42:05.120Z,2.35
2022-09-17T09:44:32.066Z,1.70
2022-09-17T09:46:58.889Z,2.00
2022-09-17T09:49:41.007Z,2.25
2022-09-17T09:52:26.474Z,1.60
2022-09-17T09:55:11.064Z,1.35
2022-09-17T09:57:47.047Z,2.33
2022-09-17T10:00:37.539Z,1.73
2022-09-17T10:03:21.917Z,1.75
2022-09-17T10:06:06.766Z,1.45
2022-09-17T10:08:42.537Z,1.65
2022-09-17T10:11:09.384Z,2.40
2022-09-17T10:13:37.096Z,2.03
2022-09-17T10:16:18.185Z,2.85
2022-09-17T10:18:46.421Z,2.08
2022-09-17T10:21:29.114Z,2.10
2022-09-17T10:23:56.418Z,3.58
2022-09-17T10:26:27.499Z,4.40
2022-09-17T10:28:57.559Z,3.53
2022-09-17T10:31:24.883Z,3.65
2022-09-17T10:33:58.949Z,4.65
2022-09-17T10:36:46.428Z,4.68
2022-09-17T10:39:31.850Z,4.45
2022-09-17T10:42:04.388Z,5.63
2022-09-17T10:44:36.392Z,5.03
2022-09-17T10:47:13.731Z,4.47
2022-09-17T10:50:25.086Z,4.43
2022-09-17T10:52:56.074Z,3.47
2022-09-17T10:55:36.225Z,3.28
2022-09-17T10:58:06.125Z,3.13
2022-09-17T11:01:02.761Z,2.17
2022-09-17T11:03:35.698Z,2.35
2022-09-17T11:06:14.478Z,1.83
2022-09-17T11:08:56.447Z,2.80
2022-09-17T11:11:40.462Z,2.15
2022-09-17T11:14:36.116Z,1.98
2022-09-17T11:17:27.571Z,3.03
2022-09-17T11:20:18.803Z,3.78
2022-09-17T11:23:26.918Z,4.63
2022-09-17T11:26:01.192Z,3.60
2022-09-17T11:29:06.134Z,3.45
2022-09-17T11:31:55.357Z,2.85
2022-09-17T11:34:32.544Z,3.00
2022-09-17T11:37:08.388Z,1.90
2022-09-17T11:39:58.598Z,2.63
2022-09-17T11:42:32.927Z,2.20
2022-09-17T11:45:14.467Z,1.63
2022-09-17T11:47:55.341Z,1.98
2022-09-17T11:50:28.539Z,1.65
2022-09-17T11:53:06.889Z,2.03
2022-09-17T11:55:51.490Z,1.60
2022-09-17T11:58:27.322Z,1.15
2022-09-17T12:01:07.121Z,1.08
2022-09-17T12:03:40.789Z,1.48
2022-09-17T12:06:18.097Z,1.15
2022-09-17T12:08:51.264Z,1.33
2022-09-17T12:11:36.404Z,0.85
2022-09-17T12:14:23.543Z,1.45
2022-09-17T12:16:57.209Z,1.10
2022-09-17T12:19:43.300Z,1.67
2022-09-17T12:22:19.497Z,1.33
2022-09-17T12:24:50.130Z,0.70
2022-09-17T12:27:28.483Z,0.73
2022-09-17T12:30:22.427Z,0.63
2022-09-17T12:33:25.881Z,0.20
2022-09-17T12:36:05.824Z,0.30
2022-09-17T12:39:18.261Z,0.17
2022-09-17T12:41:59.221Z,3.05
2022-09-17T12:44:31.801Z,0.20
2022-09-17T12:47:01.410Z,0.75
2022-09-17T12:50:05.531Z,0.60
2022-09-17T12:52:54.144Z,0.80
2022-09-17T12:55:43.067Z,0.32
2022-09-17T12:58:23.722Z,0.10
2022-09-17T13:01:23.465Z,0.13
2022-09-17T13:03:58.428Z,0.10
2022-09-17T13:06:46.818Z,0.10
2022-09-17T13:09:30.458Z,0.20
2022-09-17T13:12:03.613Z,0.20
2022-09-17T13:14:59.573Z,0.10
2022-09-17T13:17:46.781Z,0.28
2022-09-17T13:20:27.730Z,0.55
2022-09-17T13:22:57.971Z,0.10
2022-09-17T13:25:27.272Z,0.10
2022-09-17T13:28:11.629Z,0.28
2022-09-17T13:30:59.815Z,0.30
2022-09-17T13:33:52.713Z,0.38
2022-09-17T13:36:39.765Z,0.65
2022-09-17T13:39:31.663Z,1.00
2022-09-17T13:42:19.604Z,0.32
2022-09-17T13:44:52.142Z,0.40
2022-09-17T13:47:23.653Z,0.75
2022-09-17T13:49:59.060Z,0.88
2022-09-17T13:52:46.724Z,0.20
2022-09-17T13:55:40.907Z,0.47
2022-09-17T13:58:23.800Z,0.60
2022-09-17T14:01:04.407Z,0.55
2022-09-17T14:03:31.417Z,0.82
2022-09-17T14:06:19.640Z,1.95
2022-09-17T14:08:47.677Z,0.93
2022-09-17T14:11:23.804Z,2.43
2022-09-17T14:13:55.672Z,1.58
2022-09-17T14:16:29.147Z,1.42
2022-09-17T14:19:16.654Z,1.90
2022-09-17T14:22:02.197Z,2.55
2022-09-17T14:24:40.248Z,2.50
2022-09-17T14:27:30.820Z,1.80
2022-09-17T14:30:07.133Z,2.20
2022-09-17T14:32:37.097Z,1.80
2022-09-17T14:35:19.739Z,2.55
2022-09-17T14:37:53.057Z,2.17
2022-09-17T14:40:21.926Z,2.30
2022-09-17T14:42:52.598Z,2.55
2022-09-17T14:45:31.939Z,2.50
2022-09-17T14:48:37.462Z,2.17
2022-09-17T14:51:19.238Z,1.65
2022-09-17T14:53:47.519Z,1.50
2022-09-17T14:56:17.610Z,2.10
2022-09-17T14:58:50.018Z,1.58
2022-09-17T15:01:24.407Z,1.95
2022-09-17T15:04:20.940Z,1.95
2022-09-17T15:06:47.849Z,1.25
2022-09-17T15:09:26.420Z,1.05
2022-09-17T15:11:59.366Z,1.42
2022-09-17T15:14:31.619Z,1.40
2022-09-17T15:17:01.062Z,3.00
2022-09-17T15:19:37.930Z,1.50
2022-09-17T15:22:26.273Z,1.65
2022-09-17T15:25:08.324Z,1.92
2022-09-17T15:27:41.669Z,2.22
2022-09-17T15:30:21.313Z,1.98
2022-09-17T15:32:59.450Z,1.88
2022-09-17T15:35:28.433Z,2.30
2022-09-17T15:40:43.569Z,1.88
2022-09-17T15:43:34.340Z,2.03
2022-09-17T15:46:36.521Z,2.00
2022-09-17T15:49:24.306Z,2.78
2022-09-17T15:51:53.191Z,4.03
2022-09-17T15:54:31.669Z,3.05
2022-09-17T15:57:03.922Z,1.77
2022-09-17T15:59:33.317Z,3.33
2022-09-17T16:02:02.105Z,2.85
2022-09-17T16:04:34.184Z,2.40
2022-09-17T16:07:13.155Z,1.50
2022-09-17T16:09:43.432Z,5.70
2022-09-17T16:12:14.398Z,1.55
2022-09-17T16:14:45.523Z,1.05
2022-09-17T16:19:48.911Z,1.20
2022-09-17T16:22:15.773Z,0.90
2022-09-17T16:24:42.729Z,1.58
2022-09-17T16:27:17.510Z,1.30
2022-09-17T16:29:44.539Z,4.18
2022-09-17T16:32:11.666Z,2.53
2022-09-17T16:34:38.646Z,1.05
2022-09-17T16:37:05.742Z,1.52
2022-09-17T16:39:32.601Z,1.85
2022-09-17T16:41:59.426Z,3.22
2022-09-17T16:44:26.278Z,2.70
2022-09-17T16:46:53.200Z,1.30
2022-09-17T16:49:20.141Z,1.48
2022-09-17T16:51:47.056Z,2.75
2022-09-17T16:54:14.432Z,3.40
2022-09-17T16:56:41.370Z,3.45
2022-09-17T16:59:08.254Z,2.50
2022-09-17T17:01:35.205Z,3.22
2022-09-17T17:04:02.333Z,2.72
2022-09-17T17:06:29.258Z,3.10
2022-09-17T17:08:58.296Z,4.13
2022-09-17T17:11:25.316Z,2.72
2022-09-17T17:13:52.244Z,2.50
2022-09-17T17:16:19.143Z,2.38
2022-09-17T17:18:46.166Z,3.38
2022-09-17T17:21:14.620Z,4.93
2022-09-17T17:23:43.962Z,5.93
2022-09-17T17:26:10.894Z,2.88
2022-09-17T17:28:38.048Z,1.85
2022-09-17T17:31:05.691Z,1.85
2022-09-17T17:33:33.343Z,2.00
2022-09-17T17:36:07.305Z,1.25
2022-09-17T17:38:34.837Z,1.58
2022-09-17T17:41:10.651Z,2.03
2022-09-17T17:43:37.637Z,1.35
2022-09-17T17:46:12.293Z,1.65
2022-09-17T17:48:39.530Z,1.95
2022-09-17T17:51:10.769Z,2.17
2022-09-17T17:53:41.243Z,7.18
2022-09-17T17:56:09.526Z,1.77
2022-09-17T17:58:36.923Z,1.60
2022-09-17T18:01:14.397Z,1.30
2022-09-17T18:03:41.680Z,1.42
2022-09-17T18:06:09.093Z,1.25
2022-09-17T18:08:41.354Z,1.33
2022-09-17T18:11:09.385Z,0.98
2022-09-17T18:13:38.244Z,1.00
2022-09-17T18:16:06.527Z,1.70
2022-09-17T18:18:37.283Z,1.08
2022-09-17T18:21:09.665Z,4.88
2022-09-17T18:23:38.938Z,1.40
2022-09-17T18:26:09.022Z,1.35
2022-09-17T18:28:36.798Z,1.55
2022-09-17T18:31:08.402Z,2.55
2022-09-17T18:33:36.023Z,4.57
2022-09-17T18:36:05.369Z,3.95
2022-09-17T18:38:32.903Z,1.63
2022-09-17T18:41:05.140Z,2.13
2022-09-17T18:43:34.391Z,1.92
2022-09-17T18:46:01.964Z,1.65
2022-09-17T18:48:31.158Z,1.20
2022-09-17T18:51:04.308Z,3.03
2022-09-17T18:53:33.654Z,3.58
2022-09-17T18:56:10.207Z,2.15
2022-09-17T18:58:37.090Z,2.05
2022-09-17T19:01:08.376Z,1.55
2022-09-17T19:03:35.443Z,2.70
2022-09-17T19:06:04.710Z,2.25
2022-09-17T19:08:31.726Z,2.42
2022-09-17T19:10:58.905Z,2.60
2022-09-17T19:13:27.311Z,2.67
2022-09-17T19:16:01.048Z,1.30
2022-09-17T19:18:28.301Z,2.00
2022-09-17T19:21:02.415Z,1.67
2022-09-17T19:23:31.157Z,2.35
2022-09-17T19:26:04.799Z,2.78
2022-09-17T19:28:31.616Z,2.22
2022-09-17T19:30:58.478Z,2.28
2022-09-17T19:33:25.333Z,3.00
2022-09-17T19:35:52.777Z,2.75
2022-09-17T19:38:19.604Z,3.65
2022-09-17T19:41:05.199Z,2.20
2022-09-17T19:43:32.191Z,2.10
2022-09-17T19:46:02.960Z,1.83
2022-09-17T19:48:30.208Z,2.28
2022-09-17T19:50:57.723Z,2.35
2022-09-17T19:53:26.191Z,1.20
2022-09-17T19:55:53.172Z,2.00
2022-09-17T19:58:20.502Z,3.08
2022-09-17T20:00:47.374Z,1.73
2022-09-17T20:03:14.563Z,7.28
2022-09-17T20:05:41.746Z,1.95
2022-09-17T20:08:08.713Z,2.28
2022-09-17T20:10:37.454Z,1.85
2022-09-17T20:13:04.781Z,2.08
2022-09-17T20:15:35.770Z,1.25
2022-09-17T20:18:03.786Z,2.17
2022-09-17T20:20:30.791Z,1.35
2022-09-17T20:22:57.646Z,1.25
2022-09-17T20:25:25.763Z,1.23
2022-09-17T20:27:53.525Z,0.40
2022-09-17T20:30:20.819Z,3.30
2022-09-17T20:32:48.096Z,4.05
2022-09-17T20:35:15.132Z,2.65
2022-09-17T20:38:44.435Z,3.00
2022-09-17T20:40:30.647Z,2.25
2022-09-17T20:42:57.594Z,2.67
2022-09-17T20:45:24.402Z,1.58
2022-09-17T20:47:51.396Z,0.95
2022-09-17T20:50:18.235Z,1.08
2022-09-17T20:52:45.089Z,0.77
2022-09-17T20:55:12.058Z,1.17
2022-09-17T20:57:38.929Z,0.52
2022-09-17T21:00:18.092Z,0.90
2022-09-17T21:02:50.640Z,2.38
2022-09-17T21:05:18.673Z,0.88
2022-09-17T21:07:45.830Z,0.68
2022-09-17T21:10:13.634Z,0.70
2022-09-17T21:12:40.601Z,0.70
2022-09-17T21:15:08.071Z,0.90
2022-09-17T21:17:34.979Z,0.70
2022-09-17T21:20:03.028Z,0.85
2022-09-17T21:22:29.899Z,2.17
2022-09-17T21:24:56.771Z,1.40
2022-09-17T21:27:23.738Z,1.10
2022-09-17T21:29:50.600Z,0.60
2022-09-17T21:32:17.525Z,0.93
2022-09-17T21:34:44.342Z,0.90
2022-09-17T21:37:11.246Z,1.17
2022-09-17T21:39:38.130Z,1.27
2022-09-17T21:42:05.155Z,1.25
2022-09-17T21:44:32.072Z,1.58
2022-09-17T21:46:58.985Z,1.42
2022-09-17T21:49:25.957Z,1.15
2022-09-17T21:51:52.796Z,1.30
2022-09-17T21:54:19.697Z,1.83
2022-09-17T21:56:46.968Z,1.27
2022-09-17T21:59:15.889Z,1.48
2022-09-17T22:01:47.209Z,0.95
2022-09-17T22:04:16.984Z,1.35
2022-09-17T22:06:45.781Z,1.05
2022-09-17T22:09:16.519Z,0.80
2022-09-17T22:11:43.790Z,1.35
2022-09-17T22:14:13.387Z,0.82
2022-09-17T22:16:42.951Z,0.80
2022-09-17T22:19:12.828Z,0.65
2022-09-17T22:21:44.710Z,0.40
2022-09-17T22:24:12.343Z,0.70
2022-09-17T22:26:43.686Z,1.02
2022-09-17T22:29:20.265Z,1.00
2022-09-17T22:31:47.809Z,0.60
2022-09-17T22:34:17.561Z,1.25
2022-09-17T22:36:44.956Z,0.95
2022-09-17T22:39:12.201Z,0.88
2022-09-17T22:41:45.397Z,1.42
2022-09-17T22:44:20.382Z,2.53
2022-09-17T22:46:49.917Z,1.70
2022-09-17T22:49:17.577Z,1.63
2022-09-17T22:51:46.719Z,2.28
2022-09-17T22:54:15.938Z,1.58
2022-09-17T22:56:43.102Z,2.20
2022-09-17T22:59:10.106Z,2.15
2022-09-17T23:01:37.548Z,2.20
2022-09-17T23:04:05.391Z,2.90
2022-09-17T23:06:38.267Z,2.13
2022-09-17T23:09:05.369Z,2.60
2022-09-17T23:11:38.224Z,2.45
2022-09-17T23:14:07.839Z,2.45
2022-09-17T23:16:37.327Z,1.75
2022-09-17T23:19:04.496Z,2.15
2022-09-17T23:21:31.343Z,1.98
2022-09-17T23:23:58.393Z,2.15
2022-09-17T23:26:26.479Z,1.60
2022-09-17T23:28:53.827Z,2.35
2022-09-17T23:31:24.657Z,2.58
2022-09-17T23:33:53.525Z,1.55
2022-09-17T23:36:23.422Z,1.27
2022-09-17T23:38:51.420Z,0.85
2022-09-17T23:41:25.392Z,1.25
2022-09-17T23:43:54.826Z,1.60
2022-09-17T23:46:24.123Z,1.17
2022-09-17T23:48:53.595Z,0.50
2022-09-17T23:51:21.684Z,0.68
2022-09-17T23:53:48.621Z,0.40
2022-09-17T23:56:21.499Z,0.63
2022-09-17T23:58:49.504Z,0.85
